Latest Weather Observations for Carters Bore

IDQ60801

Issued at 3:32 pm EST Wednesday 1 April 2015 (issued every 30 minutes, with the page automatically refreshed every 10 minutes)

About weather observations | Map of weather stations | Latest weather observations for QLD | Other Formats
Station Details ID: 037053 Name: CARTERS BORE Lat: -20.94 Lon: 139.30 Height: 396.0 m
Data from the previous 72 hours. | See also: Recent months for locations in Queensland
Date/Time
EST
Temp
°C
App
Temp
°C
Dew
Point
Rel
Hum
%
Delta-T
°C
Wind Press
QNH
hPa
Press
MSL
hPa
Rain
since 9 am
mm
Dir
 
Spd
km/h
Gust
km/h
Spd
kts
Gust
kts
01/03:30pm 36.1 34.9 10.3 21 15.3 SE 7 15 4 8 - - 0.0
01/03:00pm 35.8 33.6 9.3 20 15.5 S 11 20 6 11 - - 0.0
01/02:30pm 35.8 34.7 12.1 24 14.4 NNW 9 15 5 8 - - 0.0
01/02:00pm 34.7 34.5 13.0 27 13.3 NNE 6 11 3 6 - - 0.0
01/01:30pm 35.4 35.2 13.5 26 13.6 NNW 7 13 4 7 - - 0.0
01/01:00pm 34.4 33.9 12.7 27 13.2 ENE 7 17 4 9 - - 0.0
01/12:30pm 33.9 33.8 14.9 32 11.9 NNE 9 19 5 10 - - 0.0
01/12:00pm 32.8 32.4 15.3 34 11.0 ENE 11 19 6 10 - - 0.0
01/11:30am 32.7 31.2 15.2 34 11.0 ENE 17 28 9 15 - - 0.0
01/11:00am 31.9 30.1 15.4 37 10.4 NE 19 28 10 15 - - 0.0
01/10:30am 31.6 30.0 15.1 36 10.3 NE 17 28 9 15 - - 0.0
01/10:00am 31.1 29.0 14.7 37 10.2 NE 19 30 10 16 - - 0.0
01/09:30am 29.9 27.8 14.8 39 9.4 ENE 19 30 10 16 - - 0.0
01/09:00am 29.0 26.8 14.8 42 8.8 NE 20 30 11 16 - - 0.0
01/08:30am 28.1 26.5 15.1 45 8.0 ENE 17 26 9 14 - - 0.0
01/08:00am 27.1 26.8 15.5 49 7.2 ENE 11 17 6 9 - - 0.0
01/07:30am 26.3 26.5 15.7 52 6.6 ENE 9 13 5 7 - - 0.0
01/07:00am 25.9 26.5 15.9 54 6.2 ENE 7 13 4 7 - - 0.0
01/06:30am 25.8 26.5 16.1 55 6.0 ENE 7 11 4 6 - - 0.0
01/06:00am 26.0 26.4 16.3 55 6.1 ENE 9 15 5 8 - - 0.0
01/05:30am 26.3 26.0 16.5 54 6.1 E 13 19 7 10 - - 0.0
01/05:00am 26.4 26.7 16.9 56 6.0 E 11 15 6 8 - - 0.0
01/04:30am 26.4 26.7 16.9 56 6.0 E 11 17 6 9 - - 0.0
01/04:00am 26.7 27.3 16.9 55 6.2 E 9 17 5 9 - - 0.0
01/03:30am 27.0 26.8 16.6 53 6.6 E 13 20 7 11 - - 0.0
01/03:00am 27.3 27.2 16.9 53 6.6 E 13 24 7 13 - - 0.0
01/02:30am 27.6 27.1 16.9 52 6.8 E 15 24 8 13 - - 0.0
01/02:00am 28.0 27.8 16.6 50 7.2 E 13 20 7 11 - - 0.0
01/01:30am 28.5 27.3 16.1 47 7.8 E 17 26 9 14 - - 0.0
01/01:00am 29.5 28.7 16.0 44 8.5 E 15 22 8 12 - - 0.0
01/12:30am 28.6 30.2 14.8 43 8.5 CALM 0 4 0 2 - - 0.0
01/12:00am 29.6 31.2 15.0 41 9.1 CALM 0 2 0 1 - - 0.0
 
Date/Time
EST
Temp
°C
App
Temp
°C
Dew
Point
Rel
Hum
%
Delta-T
°C
Wind Press
QNH
hPa
Press
MSL
hPa
Rain
since 9 am
mm
Dir
 
Spd
km/h
Gust
km/h
Spd
kts
Gust
kts
31/11:30pm 30.1 31.0 15.0 40 9.4 ENE 4 4 2 2 - - 0.0
31/11:00pm 30.8 31.2 14.8 37 9.9 E 6 9 3 5 - - 0.0
31/10:30pm 31.7 31.4 14.4 35 10.7 ESE 9 19 5 10 - - 0.0
31/10:00pm 32.4 30.0 12.6 30 12.0 S 17 24 9 13 - - 0.0
31/09:30pm 33.0 31.9 12.1 28 12.6 SSE 9 17 5 9 - - 0.0
31/09:00pm 33.5 32.4 13.0 29 12.5 SE 11 20 6 11 - - 0.0
31/08:30pm 33.8 32.6 12.7 27 12.8 SE 11 17 6 9 - - 0.0
31/08:00pm 34.4 33.2 11.5 25 13.7 S 9 13 5 7 - - 0.0
31/07:30pm 34.8 33.3 11.9 25 13.8 S 11 17 6 9 - - 0.0
31/07:00pm 35.2 34.0 11.6 24 14.2 SSW 9 13 5 7 - - 0.0
31/06:30pm 35.6 34.7 11.3 23 14.6 SSW 7 15 4 8 - - 0.0
31/06:00pm 35.7 34.8 11.4 23 14.6 SSE 7 13 4 7 - - 0.0
31/05:30pm 35.7 35.0 12.0 24 14.4 SSW 7 11 4 6 - - 0.0
31/05:00pm 35.8 34.7 12.1 24 14.4 SSE 9 17 5 9 - - 0.0
31/04:30pm 36.5 36.0 12.7 24 14.6 S 7 15 4 8 - - 0.0
31/04:00pm 35.9 34.7 12.8 25 14.2 SSW 11 17 6 9 - - 0.0
31/03:30pm 36.0 35.8 12.9 25 14.2 S 6 9 3 5 - - 0.0
31/03:00pm 35.3 33.7 12.9 26 13.8 S 13 20 7 11 - - 0.0
31/02:30pm 35.2 34.4 12.8 26 13.7 SE 9 13 5 7 - - 0.0
31/02:00pm 36.6 36.3 13.4 25 14.4 NE 7 13 4 7 - - 0.0
31/01:30pm 35.8 35.5 13.3 26 13.9 SE 7 15 4 8 - - 0.0
31/01:00pm 35.3 35.3 13.5 27 13.5 WNW 6 22 3 12 - - 0.0
31/12:30pm 34.8 33.9 13.6 28 13.1 SE 11 20 6 11 - - 0.0
31/12:00pm 34.2 33.3 13.6 29 12.7 ENE 11 20 6 11 - - 0.0
31/11:30am 34.1 33.1 13.5 28 12.7 E 11 19 6 10 - - 0.0
31/11:00am 33.2 31.4 13.3 30 12.2 ENE 15 24 8 13 - - 0.0
31/10:30am 32.3 30.2 13.5 32 11.5 E 17 24 9 13 - - 0.0
31/10:00am 31.8 30.0 12.1 30 11.8 ESE 13 26 7 14 - - 0.0
31/09:30am 30.6 27.6 10.5 29 11.7 ESE 17 24 9 13 - - 0.0
31/09:00am 29.6 26.3 8.1 26 12.0 SE 15 22 8 12 - - 0.0
31/08:30am 29.2 26.1 7.2 25 12.0 SE 13 26 7 14 - - 0.0
31/08:00am 27.8 23.4 4.8 23 12.0 SE 17 24 9 13 - - 0.0
31/07:30am 27.5 23.7 3.9 22 12.1 SSE 13 20 7 11 - - 0.0
31/07:00am 27.5 23.3 3.9 22 12.1 SE 15 24 8 13 - - 0.0
31/06:30am 27.7 23.4 3.4 21 12.4 SSE 15 22 8 12 - - 0.0
31/06:00am 27.9 23.3 3.6 21 12.4 SSE 17 22 9 12 - - 0.0
31/05:30am 28.0 23.8 3.7 21 12.4 SSE 15 24 8 13 - - 0.0
31/05:00am 28.3 23.7 3.9 21 12.6 SSE 17 28 9 15 - - 0.0
31/04:30am 28.6 24.0 5.5 23 12.2 SSE 19 26 10 14 - - 0.0
31/04:00am 28.6 24.5 7.8 27 11.5 SSE 19 24 10 13 - - 0.0
31/03:30am 28.9 25.2 9.6 30 11.0 SSE 19 26 10 14 - - 0.0
31/03:00am 29.1 26.0 11.6 33 10.3 SSE 19 28 10 15 - - 0.0
31/02:30am 29.4 26.9 13.6 38 9.6 SSE 19 30 10 16 - - 0.0
31/02:00am 29.2 28.2 14.6 41 9.0 S 13 20 7 11 - - 0.0
31/01:30am 29.3 29.5 14.7 41 9.0 SSE 7 9 4 5 - - 0.0
31/01:00am 29.5 29.2 14.5 40 9.2 S 9 11 5 6 - - 0.0
31/12:30am 30.1 30.1 14.2 38 9.8 SSE 7 11 4 6 - - 0.0
31/12:00am 30.6 30.3 14.3 37 10.0 SSE 9 13 5 7 - - 0.0
 
Date/Time
EST
Temp
°C
App
Temp
°C
Dew
Point
Rel
Hum
%
Delta-T
°C
Wind Press
QNH
hPa
Press
MSL
hPa
Rain
since 9 am
mm
Dir
 
Spd
km/h
Gust
km/h
Spd
kts
Gust
kts
30/11:30pm 30.8 30.5 14.4 36 10.1 SE 9 13 5 7 - - 0.0
30/11:00pm 31.1 30.5 14.7 37 10.2 SSE 11 15 6 8 - - 0.0
30/10:30pm 31.6 30.6 14.7 36 10.5 SSE 13 19 7 10 - - 0.0
30/10:00pm 32.3 30.9 14.4 33 11.1 SE 15 24 8 13 - - 0.0
30/09:30pm 33.3 30.7 13.9 31 12.0 SSE 20 32 11 17 - - 0.0
30/09:00pm 32.8 32.1 11.3 27 12.8 SE 6 7 3 4 - - 0.0
30/08:30pm 33.1 32.3 11.0 26 13.1 SE 6 7 3 4 - - 0.0
30/08:00pm 33.7 33.2 10.9 25 13.5 ESE 4 4 2 2 - - 0.0
30/07:30pm 33.9 33.5 11.1 25 13.6 ESE 4 7 2 4 - - 0.0
30/07:00pm 34.6 33.8 11.1 24 14.0 ESE 6 9 3 5 - - 0.0
30/06:30pm 35.1 34.3 10.9 23 14.4 ESE 6 7 3 4 - - 0.0
30/06:00pm 35.6 35.3 11.3 23 14.6 NE 4 6 2 3 - - 0.0
30/05:30pm 35.5 34.2 11.2 23 14.6 NE 9 15 5 8 - - 0.0
30/05:00pm 36.0 34.6 10.9 22 15.0 SSE 9 19 5 10 - - 0.0
30/04:30pm 36.7 36.4 11.5 22 15.2 NNW 4 13 2 7 - - 0.0
30/04:00pm 36.0 35.4 11.6 23 14.7 SW 6 9 3 5 - - 0.0
30/03:30pm 35.8 35.1 11.4 23 14.7 ESE 6 17 3 9 - - 0.0
30/03:00pm 35.4 34.4 12.4 25 14.0 NE 9 19 5 10 - - 0.0
30/02:30pm 34.9 33.2 12.5 25 13.7 ENE 13 20 7 11 - - 0.0
30/02:00pm 35.3 33.9 12.3 25 14.0 NNE 11 24 6 13 - - 0.0
30/01:30pm 34.6 32.9 12.3 26 13.5 NE 13 26 7 14 - - 0.0
30/01:00pm 35.4 33.7 12.4 25 14.0 NE 13 20 7 11 - - 0.0
30/12:30pm 34.0 31.5 12.4 27 13.1 N 17 28 9 15 - - 0.0
30/12:00pm 34.1 31.2 12.4 26 13.2 NNE 19 30 10 16 - - 0.0
30/11:30am 33.4 30.8 11.9 27 12.9 NE 17 26 9 14 - - 0.0
30/11:00am 33.1 30.0 12.1 27 12.6 NNE 20 32 11 17 - - 0.0
30/10:30am 32.6 29.3 11.7 28 12.5 NE 20 30 11 16 - - 0.0
30/10:00am 31.9 28.3 11.7 29 12.0 NE 22 32 12 17 - - 0.0
30/09:30am 31.3 28.5 13.1 33 11.0 NE 20 30 11 16 - - 0.0
30/09:00am 30.6 28.2 14.3 37 10.0 ENE 20 32 11 17 - - 0.0
30/08:30am 29.8 27.4 14.4 39 9.5 E 20 32 11 17 - - 0.0
30/08:00am 29.1 27.8 14.9 42 8.8 ESE 15 22 8 12 - - 0.0
30/07:30am 28.1 27.3 15.1 45 8.0 ESE 13 20 7 11 - - 0.0
30/07:00am 27.5 26.6 14.8 45 7.8 SE 13 19 7 10 - - 0.0
30/06:30am 27.6 27.1 14.9 45 7.8 SE 11 15 6 8 - - 0.0
30/06:00am 27.6 27.0 14.6 45 8.0 SE 11 15 6 8 - - 0.0
30/05:30am 27.8 26.9 14.8 45 8.0 SE 13 17 7 9 - - 0.0
30/05:00am 28.0 27.0 14.6 44 8.2 SE 13 17 7 9 - - 0.0
30/04:30am 28.2 27.3 14.8 44 8.2 SE 13 19 7 10 - - 0.0
30/04:00am 28.5 27.5 14.7 43 8.5 SE 13 19 7 10 - - 0.0
30/03:30am 28.3 28.0 14.5 43 8.5 SSE 9 13 5 7 - - 0.0
30/03:00am 28.6 28.3 14.4 41 8.7 SSE 9 13 5 7 - - 0.0
30/02:30am 28.7 28.8 14.5 42 8.7 SSE 7 11 4 6 - - 0.0
30/02:00am 29.1 28.5 14.5 41 9.0 SSE 11 15 6 8 - - 0.0
30/01:30am 29.5 28.9 14.5 40 9.2 SSE 11 17 6 9 - - 0.0
30/01:00am 30.1 29.4 14.2 38 9.8 SE 11 17 6 9 - - 0.0
30/12:30am 30.3 28.5 14.4 38 9.8 SSE 17 24 9 13 - - 0.0
30/12:00am 30.2 30.6 14.7 39 9.6 S 6 7 3 4 - - 0.0
 
Date/Time
EST
Temp
°C
App
Temp
°C
Dew
Point
Rel
Hum
%
Delta-T
°C
Wind Press
QNH
hPa
Press
MSL
hPa
Rain
since 9 am
mm
Dir
 
Spd
km/h
Gust
km/h
Spd
kts
Gust
kts
29/11:30pm 30.2 30.6 14.7 39 9.6 SW 6 6 3 3 - - 0.0
29/11:00pm 30.0 31.1 14.5 38 9.6 SE 2 6 1 3 - - 0.0
29/10:30pm 30.6 31.0 14.7 38 9.9 S 6 9 3 5 - - 0.0
29/10:00pm 31.0 30.8 14.6 37 10.2 S 9 15 5 8 - - 0.0
29/09:30pm 31.4 30.4 14.5 35 10.5 S 13 19 7 10 - - 0.0
29/09:00pm 32.1 30.6 14.3 34 11.0 SSE 15 26 8 14 - - 0.0
29/08:30pm 32.3 31.9 14.0 33 11.3 SSW 9 13 5 7 - - 0.0
29/08:00pm 32.9 32.3 13.5 30 11.9 S 9 17 5 9 - - 0.0
29/07:30pm 32.9 33.2 13.5 30 11.9 SSE 4 6 2 3 - - 0.0
29/07:00pm 33.3 34.0 13.4 30 12.2 SE 2 4 1 2 - - 0.0
29/06:30pm 33.6 33.6 13.6 29 12.3 ESE 6 11 3 6 - - 0.0
29/06:00pm 34.0 33.8 13.5 29 12.6 ESE 7 15 4 8 - - 0.0
29/05:30pm 34.7 34.1 14.6 30 12.6 NE 11 17 6 9 - - 0.0
29/05:00pm 35.1 34.6 14.9 29 12.8 NE 11 15 6 8 - - 0.0
29/04:30pm 35.1 34.4 14.4 29 13.0 E 11 22 6 12 - - 0.0
29/04:00pm 34.9 33.8 14.2 28 12.9 NE 13 20 7 11 - - 0.0

Other Formats:

Comma delimited format used in spreadsheet applications
http://www.bom.gov.au/fwo/IDQ60801/IDQ60801.94347.axf

JavaScript Object Notation format (JSON) in row-major order
http://www.bom.gov.au/fwo/IDQ60801/IDQ60801.94347.json